sensor_id;sensor_type;location;lat;lon;timestamp;P1;durP1;ratioP1;P2;durP2;ratioP2
18435;SDS011;9346;52.006;4.720;2023-07-31T00:01:19;16.13;;;4.83;;
18435;SDS011;9346;52.006;4.720;2023-07-31T00:03:47;9.23;;;4.93;;
18435;SDS011;9346;52.006;4.720;2023-07-31T00:06:14;14.03;;;4.30;;
18435;SDS011;9346;52.006;4.720;2023-07-31T00:08:41;17.83;;;5.37;;
18435;SDS011;9346;52.006;4.720;2023-07-31T00:11:08;18.33;;;5.23;;
18435;SDS011;9346;52.006;4.720;2023-07-31T00:13:35;7.90;;;4.10;;
18435;SDS011;9346;52.006;4.720;2023-07-31T00:16:02;14.20;;;4.77;;
18435;SDS011;9346;52.006;4.720;2023-07-31T00:18:29;9.23;;;3.97;;
18435;SDS011;9346;52.006;4.720;2023-07-31T00:20:58;7.50;;;4.23;;
18435;SDS011;9346;52.006;4.720;2023-07-31T00:23:25;11.00;;;4.43;;
18435;SDS011;9346;52.006;4.720;2023-07-31T00:25:52;17.67;;;4.60;;
18435;SDS011;9346;52.006;4.720;2023-07-31T00:28:19;7.30;;;3.40;;
18435;SDS011;9346;52.006;4.720;2023-07-31T00:30:46;14.23;;;4.33;;
18435;SDS011;9346;52.006;4.720;2023-07-31T00:33:13;7.37;;;4.10;;
18435;SDS011;9346;52.006;4.720;2023-07-31T00:35:40;17.00;;;5.17;;
18435;SDS011;9346;52.006;4.720;2023-07-31T00:38:09;15.03;;;4.70;;
18435;SDS011;9346;52.006;4.720;2023-07-31T00:40:36;11.57;;;4.33;;
18435;SDS011;9346;52.006;4.720;2023-07-31T00:43:04;15.17;;;3.90;;
18435;SDS011;9346;52.006;4.720;2023-07-31T00:45:31;17.03;;;4.83;;
18435;SDS011;9346;52.006;4.720;2023-07-31T00:47:59;12.27;;;4.50;;
18435;SDS011;9346;52.006;4.720;2023-07-31T00:50:26;15.00;;;4.67;;
18435;SDS011;9346;52.006;4.720;2023-07-31T00:52:54;10.33;;;3.63;;
18435;SDS011;9346;52.006;4.720;2023-07-31T00:55:23;16.77;;;5.57;;
18435;SDS011;9346;52.006;4.720;2023-07-31T00:57:50;13.57;;;4.20;;
18435;SDS011;9346;52.006;4.720;2023-07-31T01:00:21;13.07;;;4.40;;
18435;SDS011;9346;52.006;4.720;2023-07-31T01:02:47;12.77;;;4.40;;
18435;SDS011;9346;52.006;4.720;2023-07-31T01:05:15;8.93;;;3.53;;
18435;SDS011;9346;52.006;4.720;2023-07-31T01:07:45;15.57;;;4.63;;
18435;SDS011;9346;52.006;4.720;2023-07-31T01:10:18;9.23;;;4.47;;
18435;SDS011;9346;52.006;4.720;2023-07-31T01:12:51;9.67;;;3.13;;
18435;SDS011;9346;52.006;4.720;2023-07-31T01:15:20;12.00;;;4.20;;
18435;SDS011;9346;52.006;4.720;2023-07-31T01:17:47;8.27;;;3.87;;
18435;SDS011;9346;52.006;4.720;2023-07-31T01:20:15;11.93;;;4.33;;
18435;SDS011;9346;52.006;4.720;2023-07-31T01:25:55;5.73;;;3.00;;
18435;SDS011;9346;52.006;4.720;2023-07-31T01:28:27;5.60;;;3.07;;
18435;SDS011;9346;52.006;4.720;2023-07-31T01:31:00;9.57;;;3.37;;
18435;SDS011;9346;52.006;4.720;2023-07-31T01:33:29;6.03;;;3.67;;
18435;SDS011;9346;52.006;4.720;2023-07-31T01:35:57;8.50;;;3.27;;
18435;SDS011;9346;52.006;4.720;2023-07-31T01:38:24;6.90;;;2.70;;
18435;SDS011;9346;52.006;4.720;2023-07-31T01:40:51;7.63;;;3.87;;
18435;SDS011;9346;52.006;4.720;2023-07-31T01:43:20;8.60;;;3.07;;
18435;SDS011;9346;52.006;4.720;2023-07-31T01:45:49;7.90;;;3.07;;
18435;SDS011;9346;52.006;4.720;2023-07-31T01:48:16;12.13;;;4.63;;
18435;SDS011;9346;52.006;4.720;2023-07-31T01:50:43;8.83;;;3.67;;
18435;SDS011;9346;52.006;4.720;2023-07-31T01:53:10;10.00;;;4.37;;
18435;SDS011;9346;52.006;4.720;2023-07-31T01:55:38;8.90;;;4.87;;
18435;SDS011;9346;52.006;4.720;2023-07-31T01:58:07;15.00;;;4.20;;
18435;SDS011;9346;52.006;4.720;2023-07-31T02:00:36;13.30;;;4.27;;
18435;SDS011;9346;52.006;4.720;2023-07-31T02:03:03;14.50;;;3.73;;
18435;SDS011;9346;52.006;4.720;2023-07-31T02:05:30;15.60;;;4.40;;
18435;SDS011;9346;52.006;4.720;2023-07-31T02:07:57;9.83;;;4.37;;
18435;SDS011;9346;52.006;4.720;2023-07-31T02:10:24;9.07;;;3.87;;
18435;SDS011;9346;52.006;4.720;2023-07-31T02:12:50;11.30;;;4.40;;
18435;SDS011;9346;52.006;4.720;2023-07-31T02:15:17;9.83;;;3.90;;
18435;SDS011;9346;52.006;4.720;2023-07-31T02:17:47;15.53;;;4.63;;
18435;SDS011;9346;52.006;4.720;2023-07-31T02:20:14;9.43;;;4.07;;
18435;SDS011;9346;52.006;4.720;2023-07-31T02:22:42;12.07;;;4.63;;
18435;SDS011;9346;52.006;4.720;2023-07-31T02:25:09;7.90;;;4.40;;
18435;SDS011;9346;52.006;4.720;2023-07-31T02:27:35;12.00;;;4.57;;
18435;SDS011;9346;52.006;4.720;2023-07-31T02:30:03;8.23;;;5.10;;
18435;SDS011;9346;52.006;4.720;2023-07-31T02:32:30;15.13;;;5.23;;
18435;SDS011;9346;52.006;4.720;2023-07-31T02:34:59;11.60;;;4.60;;
18435;SDS011;9346;52.006;4.720;2023-07-31T02:37:25;12.07;;;4.83;;
18435;SDS011;9346;52.006;4.720;2023-07-31T02:39:53;14.93;;;5.13;;
18435;SDS011;9346;52.006;4.720;2023-07-31T02:42:20;12.77;;;4.70;;
18435;SDS011;9346;52.006;4.720;2023-07-31T02:44:47;13.63;;;4.97;;
18435;SDS011;9346;52.006;4.720;2023-07-31T02:47:20;10.37;;;4.23;;
18435;SDS011;9346;52.006;4.720;2023-07-31T02:49:47;9.83;;;3.70;;
18435;SDS011;9346;52.006;4.720;2023-07-31T02:52:16;12.87;;;4.47;;
18435;SDS011;9346;52.006;4.720;2023-07-31T02:54:43;12.53;;;4.37;;
18435;SDS011;9346;52.006;4.720;2023-07-31T02:57:10;9.57;;;4.33;;
18435;SDS011;9346;52.006;4.720;2023-07-31T02:59:38;15.43;;;4.10;;
18435;SDS011;9346;52.006;4.720;2023-07-31T03:02:05;11.13;;;4.27;;
18435;SDS011;9346;52.006;4.720;2023-07-31T03:04:32;11.40;;;3.63;;
18435;SDS011;9346;52.006;4.720;2023-07-31T03:06:59;11.77;;;4.17;;
18435;SDS011;9346;52.006;4.720;2023-07-31T03:09:28;9.60;;;3.90;;
18435;SDS011;9346;52.006;4.720;2023-07-31T03:11:55;8.30;;;4.30;;
18435;SDS011;9346;52.006;4.720;2023-07-31T03:14:22;11.10;;;4.30;;
18435;SDS011;9346;52.006;4.720;2023-07-31T03:16:51;8.60;;;3.67;;
18435;SDS011;9346;52.006;4.720;2023-07-31T03:19:18;9.93;;;4.50;;
18435;SDS011;9346;52.006;4.720;2023-07-31T03:21:45;10.00;;;4.00;;
18435;SDS011;9346;52.006;4.720;2023-07-31T03:24:13;11.40;;;3.93;;
18435;SDS011;9346;52.006;4.720;2023-07-31T03:26:41;13.93;;;4.93;;
18435;SDS011;9346;52.006;4.720;2023-07-31T03:29:08;16.77;;;3.93;;
18435;SDS011;9346;52.006;4.720;2023-07-31T03:31:35;9.87;;;3.83;;
18435;SDS011;9346;52.006;4.720;2023-07-31T03:34:02;15.53;;;4.60;;
18435;SDS011;9346;52.006;4.720;2023-07-31T03:36:29;6.90;;;3.60;;
18435;SDS011;9346;52.006;4.720;2023-07-31T03:38:56;10.50;;;4.20;;
18435;SDS011;9346;52.006;4.720;2023-07-31T03:41:23;11.13;;;4.27;;
18435;SDS011;9346;52.006;4.720;2023-07-31T03:43:52;8.47;;;3.00;;
18435;SDS011;9346;52.006;4.720;2023-07-31T03:46:21;9.27;;;3.97;;
18435;SDS011;9346;52.006;4.720;2023-07-31T03:48:48;13.17;;;4.93;;
18435;SDS011;9346;52.006;4.720;2023-07-31T03:51:15;9.33;;;3.40;;
18435;SDS011;9346;52.006;4.720;2023-07-31T03:53:43;13.97;;;4.53;;
18435;SDS011;9346;52.006;4.720;2023-07-31T03:56:10;7.50;;;3.30;;
18435;SDS011;9346;52.006;4.720;2023-07-31T03:58:37;11.83;;;4.10;;
18435;SDS011;9346;52.006;4.720;2023-07-31T04:01:06;7.93;;;4.23;;
18435;SDS011;9346;52.006;4.720;2023-07-31T04:03:33;6.50;;;3.20;;
18435;SDS011;9346;52.006;4.720;2023-07-31T04:06:00;7.63;;;3.67;;
18435;SDS011;9346;52.006;4.720;2023-07-31T04:08:26;8.03;;;4.03;;
18435;SDS011;9346;52.006;4.720;2023-07-31T04:10:53;7.27;;;3.37;;
18435;SDS011;9346;52.006;4.720;2023-07-31T04:13:21;6.63;;;3.60;;
18435;SDS011;9346;52.006;4.720;2023-07-31T04:15:48;11.20;;;3.90;;
18435;SDS011;9346;52.006;4.720;2023-07-31T04:18:18;8.70;;;4.00;;
18435;SDS011;9346;52.006;4.720;2023-07-31T04:20:45;7.37;;;4.20;;
18435;SDS011;9346;52.006;4.720;2023-07-31T04:25:39;10.43;;;3.70;;
18435;SDS011;9346;52.006;4.720;2023-07-31T04:28:06;7.30;;;3.43;;
18435;SDS011;9346;52.006;4.720;2023-07-31T04:30:33;9.67;;;3.93;;
18435;SDS011;9346;52.006;4.720;2023-07-31T04:33:01;5.40;;;2.80;;
18435;SDS011;9346;52.006;4.720;2023-07-31T04:35:30;4.13;;;2.37;;
18435;SDS011;9346;52.006;4.720;2023-07-31T04:37:57;4.87;;;2.80;;
18435;SDS011;9346;52.006;4.720;2023-07-31T04:40:24;4.60;;;3.07;;
18435;SDS011;9346;52.006;4.720;2023-07-31T04:42:51;4.93;;;2.80;;
18435;SDS011;9346;52.006;4.720;2023-07-31T04:45:18;5.73;;;3.17;;
18435;SDS011;9346;52.006;4.720;2023-07-31T04:47:45;5.27;;;2.90;;
18435;SDS011;9346;52.006;4.720;2023-07-31T04:50:12;6.10;;;3.30;;
18435;SDS011;9346;52.006;4.720;2023-07-31T04:52:40;5.30;;;2.73;;
18435;SDS011;9346;52.006;4.720;2023-07-31T04:55:07;4.63;;;2.23;;
18435;SDS011;9346;52.006;4.720;2023-07-31T04:57:35;5.80;;;3.30;;
18435;SDS011;9346;52.006;4.720;2023-07-31T05:00:02;6.67;;;2.93;;
18435;SDS011;9346;52.006;4.720;2023-07-31T05:02:30;6.60;;;3.00;;
18435;SDS011;9346;52.006;4.720;2023-07-31T05:04:57;8.40;;;3.27;;
18435;SDS011;9346;52.006;4.720;2023-07-31T05:07:24;5.87;;;2.87;;
18435;SDS011;9346;52.006;4.720;2023-07-31T05:09:52;8.70;;;3.37;;
18435;SDS011;9346;52.006;4.720;2023-07-31T05:12:19;9.03;;;3.20;;
18435;SDS011;9346;52.006;4.720;2023-07-31T05:14:46;8.00;;;3.10;;
18435;SDS011;9346;52.006;4.720;2023-07-31T05:17:13;3.93;;;2.40;;
18435;SDS011;9346;52.006;4.720;2023-07-31T05:19:40;5.40;;;2.60;;
18435;SDS011;9346;52.006;4.720;2023-07-31T05:22:09;8.03;;;2.67;;
18435;SDS011;9346;52.006;4.720;2023-07-31T05:24:36;4.83;;;2.87;;
18435;SDS011;9346;52.006;4.720;2023-07-31T05:27:06;7.40;;;3.23;;
18435;SDS011;9346;52.006;4.720;2023-07-31T05:29:34;6.73;;;2.80;;
18435;SDS011;9346;52.006;4.720;2023-07-31T05:32:01;4.47;;;2.40;;
18435;SDS011;9346;52.006;4.720;2023-07-31T05:34:28;2.90;;;2.17;;
18435;SDS011;9346;52.006;4.720;2023-07-31T05:36:55;3.87;;;2.07;;
18435;SDS011;9346;52.006;4.720;2023-07-31T05:39:23;5.70;;;2.27;;
18435;SDS011;9346;52.006;4.720;2023-07-31T05:41:49;4.00;;;2.73;;
18435;SDS011;9346;52.006;4.720;2023-07-31T05:44:18;4.23;;;2.50;;
18435;SDS011;9346;52.006;4.720;2023-07-31T05:46:45;3.20;;;2.30;;
18435;SDS011;9346;52.006;4.720;2023-07-31T05:49:12;7.17;;;2.17;;
18435;SDS011;9346;52.006;4.720;2023-07-31T05:51:39;7.60;;;2.37;;
18435;SDS011;9346;52.006;4.720;2023-07-31T05:54:06;5.47;;;2.43;;
18435;SDS011;9346;52.006;4.720;2023-07-31T05:56:33;3.37;;;2.20;;
18435;SDS011;9346;52.006;4.720;2023-07-31T05:59:00;3.17;;;2.10;;
18435;SDS011;9346;52.006;4.720;2023-07-31T06:01:29;3.87;;;2.00;;
18435;SDS011;9346;52.006;4.720;2023-07-31T06:03:56;3.57;;;2.37;;
18435;SDS011;9346;52.006;4.720;2023-07-31T06:06:23;6.27;;;1.90;;
18435;SDS011;9346;52.006;4.720;2023-07-31T06:08:50;3.33;;;1.87;;
18435;SDS011;9346;52.006;4.720;2023-07-31T06:11:19;3.87;;;2.33;;
18435;SDS011;9346;52.006;4.720;2023-07-31T06:13:47;3.57;;;2.33;;
18435;SDS011;9346;52.006;4.720;2023-07-31T06:16:14;4.80;;;2.33;;
18435;SDS011;9346;52.006;4.720;2023-07-31T06:18:43;3.93;;;1.90;;
18435;SDS011;9346;52.006;4.720;2023-07-31T06:21:10;4.40;;;2.07;;
18435;SDS011;9346;52.006;4.720;2023-07-31T06:23:37;3.67;;;2.00;;
18435;SDS011;9346;52.006;4.720;2023-07-31T06:26:04;6.07;;;2.70;;
18435;SDS011;9346;52.006;4.720;2023-07-31T06:28:31;2.23;;;1.77;;
18435;SDS011;9346;52.006;4.720;2023-07-31T06:30:58;5.40;;;2.70;;
18435;SDS011;9346;52.006;4.720;2023-07-31T06:33:25;2.80;;;1.73;;
18435;SDS011;9346;52.006;4.720;2023-07-31T06:35:54;5.27;;;2.57;;
18435;SDS011;9346;52.006;4.720;2023-07-31T06:38:22;3.47;;;1.80;;
18435;SDS011;9346;52.006;4.720;2023-07-31T06:40:50;4.23;;;2.60;;
18435;SDS011;9346;52.006;4.720;2023-07-31T06:43:17;4.87;;;1.93;;
18435;SDS011;9346;52.006;4.720;2023-07-31T06:45:44;2.27;;;1.87;;
18435;SDS011;9346;52.006;4.720;2023-07-31T06:48:11;4.63;;;1.93;;
18435;SDS011;9346;52.006;4.720;2023-07-31T06:50:38;2.40;;;1.70;;
18435;SDS011;9346;52.006;4.720;2023-07-31T06:53:07;4.03;;;2.20;;
18435;SDS011;9346;52.006;4.720;2023-07-31T06:55:34;4.47;;;1.90;;
18435;SDS011;9346;52.006;4.720;2023-07-31T06:58:02;3.07;;;1.77;;
18435;SDS011;9346;52.006;4.720;2023-07-31T07:00:29;2.83;;;1.73;;
18435;SDS011;9346;52.006;4.720;2023-07-31T07:02:55;1.63;;;1.40;;
18435;SDS011;9346;52.006;4.720;2023-07-31T07:05:23;2.70;;;1.43;;
18435;SDS011;9346;52.006;4.720;2023-07-31T07:07:50;5.30;;;1.70;;
18435;SDS011;9346;52.006;4.720;2023-07-31T07:10:19;1.83;;;1.60;;
18435;SDS011;9346;52.006;4.720;2023-07-31T07:12:47;1.47;;;1.37;;
18435;SDS011;9346;52.006;4.720;2023-07-31T07:15:15;1.43;;;1.27;;
18435;SDS011;9346;52.006;4.720;2023-07-31T07:17:42;2.13;;;1.50;;
18435;SDS011;9346;52.006;4.720;2023-07-31T07:20:09;1.90;;;1.23;;
18435;SDS011;9346;52.006;4.720;2023-07-31T07:22:36;1.57;;;1.33;;
18435;SDS011;9346;52.006;4.720;2023-07-31T07:25:03;1.60;;;1.20;;
18435;SDS011;9346;52.006;4.720;2023-07-31T07:27:34;3.93;;;1.37;;
18435;SDS011;9346;52.006;4.720;2023-07-31T07:30:01;1.20;;;1.10;;
18435;SDS011;9346;52.006;4.720;2023-07-31T07:32:28;1.67;;;1.13;;
18435;SDS011;9346;52.006;4.720;2023-07-31T07:34:55;1.50;;;1.10;;
18435;SDS011;9346;52.006;4.720;2023-07-31T07:37:22;1.53;;;1.13;;
18435;SDS011;9346;52.006;4.720;2023-07-31T07:39:49;1.60;;;1.40;;
18435;SDS011;9346;52.006;4.720;2023-07-31T07:42:16;1.37;;;1.23;;
18435;SDS011;9346;52.006;4.720;2023-07-31T07:44:45;4.00;;;1.40;;
18435;SDS011;9346;52.006;4.720;2023-07-31T07:47:12;1.40;;;1.30;;
18435;SDS011;9346;52.006;4.720;2023-07-31T07:49:39;1.60;;;1.10;;
18435;SDS011;9346;52.006;4.720;2023-07-31T07:52:06;1.93;;;1.30;;
18435;SDS011;9346;52.006;4.720;2023-07-31T07:54:33;1.87;;;1.00;;
18435;SDS011;9346;52.006;4.720;2023-07-31T07:57:00;0.97;;;0.97;;
18435;SDS011;9346;52.006;4.720;2023-07-31T07:59:27;1.57;;;1.10;;
18435;SDS011;9346;52.006;4.720;2023-07-31T08:01:55;1.23;;;0.97;;
18435;SDS011;9346;52.006;4.720;2023-07-31T08:04:22;1.37;;;0.93;;
18435;SDS011;9346;52.006;4.720;2023-07-31T08:06:49;2.27;;;0.87;;
18435;SDS011;9346;52.006;4.720;2023-07-31T08:09:16;3.70;;;1.30;;
18435;SDS011;9346;52.006;4.720;2023-07-31T08:11:43;2.53;;;1.10;;
18435;SDS011;9346;52.006;4.720;2023-07-31T08:14:10;1.30;;;0.87;;
18435;SDS011;9346;52.006;4.720;2023-07-31T08:16:37;1.00;;;0.87;;
18435;SDS011;9346;52.006;4.720;2023-07-31T08:19:05;1.30;;;0.90;;
18435;SDS011;9346;52.006;4.720;2023-07-31T08:21:32;0.80;;;0.60;;
18435;SDS011;9346;52.006;4.720;2023-07-31T08:23:59;1.10;;;0.90;;
18435;SDS011;9346;52.006;4.720;2023-07-31T08:26:26;0.67;;;0.53;;
18435;SDS011;9346;52.006;4.720;2023-07-31T08:28:55;1.07;;;0.70;;
18435;SDS011;9346;52.006;4.720;2023-07-31T08:31:22;0.60;;;0.60;;
18435;SDS011;9346;52.006;4.720;2023-07-31T08:33:49;0.67;;;0.67;;
18435;SDS011;9346;52.006;4.720;2023-07-31T08:36:18;1.10;;;0.60;;
18435;SDS011;9346;52.006;4.720;2023-07-31T08:38:45;1.10;;;0.67;;
18435;SDS011;9346;52.006;4.720;2023-07-31T08:41:12;1.37;;;0.70;;
18435;SDS011;9346;52.006;4.720;2023-07-31T08:43:39;0.60;;;0.40;;
18435;SDS011;9346;52.006;4.720;2023-07-31T08:46:06;0.83;;;0.67;;
18435;SDS011;9346;52.006;4.720;2023-07-31T08:48:33;1.03;;;0.53;;
18435;SDS011;9346;52.006;4.720;2023-07-31T08:51:04;0.90;;;0.70;;
18435;SDS011;9346;52.006;4.720;2023-07-31T08:53:32;0.70;;;0.70;;
18435;SDS011;9346;52.006;4.720;2023-07-31T08:55:59;0.50;;;0.50;;
18435;SDS011;9346;52.006;4.720;2023-07-31T08:58:27;1.00;;;0.70;;
18435;SDS011;9346;52.006;4.720;2023-07-31T09:00:57;1.83;;;0.60;;
18435;SDS011;9346;52.006;4.720;2023-07-31T09:03:27;0.80;;;0.60;;
18435;SDS011;9346;52.006;4.720;2023-07-31T09:05:57;1.50;;;0.40;;
18435;SDS011;9346;52.006;4.720;2023-07-31T09:08:24;2.53;;;0.67;;
18435;SDS011;9346;52.006;4.720;2023-07-31T09:10:58;1.97;;;0.60;;
18435;SDS011;9346;52.006;4.720;2023-07-31T09:13:26;0.70;;;0.67;;
18435;SDS011;9346;52.006;4.720;2023-07-31T09:15:54;0.57;;;0.40;;
18435;SDS011;9346;52.006;4.720;2023-07-31T09:18:21;1.57;;;0.83;;
18435;SDS011;9346;52.006;4.720;2023-07-31T09:21:00;0.70;;;0.60;;
18435;SDS011;9346;52.006;4.720;2023-07-31T09:23:27;1.00;;;0.80;;
18435;SDS011;9346;52.006;4.720;2023-07-31T09:26:10;1.10;;;0.80;;
18435;SDS011;9346;52.006;4.720;2023-07-31T09:28:38;3.13;;;1.67;;
18435;SDS011;9346;52.006;4.720;2023-07-31T09:31:05;2.53;;;1.13;;
18435;SDS011;9346;52.006;4.720;2023-07-31T09:33:32;1.40;;;1.30;;
18435;SDS011;9346;52.006;4.720;2023-07-31T09:36:00;1.30;;;0.97;;
18435;SDS011;9346;52.006;4.720;2023-07-31T09:38:27;1.20;;;1.10;;
18435;SDS011;9346;52.006;4.720;2023-07-31T09:40:53;2.70;;;1.30;;
18435;SDS011;9346;52.006;4.720;2023-07-31T09:43:22;2.30;;;1.37;;
18435;SDS011;9346;52.006;4.720;2023-07-31T09:45:54;1.97;;;1.30;;
18435;SDS011;9346;52.006;4.720;2023-07-31T09:48:23;1.20;;;1.10;;
18435;SDS011;9346;52.006;4.720;2023-07-31T09:50:52;1.40;;;1.30;;
18435;SDS011;9346;52.006;4.720;2023-07-31T09:53:19;1.60;;;1.50;;
18435;SDS011;9346;52.006;4.720;2023-07-31T09:55:57;1.93;;;1.43;;
18435;SDS011;9346;52.006;4.720;2023-07-31T09:58:27;1.93;;;1.77;;
18435;SDS011;9346;52.006;4.720;2023-07-31T10:00:57;2.70;;;1.77;;
18435;SDS011;9346;52.006;4.720;2023-07-31T10:03:25;2.23;;;1.67;;
18435;SDS011;9346;52.006;4.720;2023-07-31T10:05:53;1.67;;;1.30;;
18435;SDS011;9346;52.006;4.720;2023-07-31T10:08:23;2.10;;;1.50;;
18435;SDS011;9346;52.006;4.720;2023-07-31T10:10:55;1.97;;;1.57;;
18435;SDS011;9346;52.006;4.720;2023-07-31T10:13:28;3.03;;;1.60;;
18435;SDS011;9346;52.006;4.720;2023-07-31T10:15:58;1.50;;;1.40;;
18435;SDS011;9346;52.006;4.720;2023-07-31T10:18:26;1.93;;;1.30;;
18435;SDS011;9346;52.006;4.720;2023-07-31T10:20:55;3.47;;;1.90;;
18435;SDS011;9346;52.006;4.720;2023-07-31T10:23:22;3.77;;;1.83;;
18435;SDS011;9346;52.006;4.720;2023-07-31T10:25:51;1.60;;;1.37;;
18435;SDS011;9346;52.006;4.720;2023-07-31T10:28:20;1.97;;;1.47;;
18435;SDS011;9346;52.006;4.720;2023-07-31T10:30:49;2.63;;;1.47;;
18435;SDS011;9346;52.006;4.720;2023-07-31T10:33:18;1.40;;;1.20;;
18435;SDS011;9346;52.006;4.720;2023-07-31T10:35:46;2.63;;;1.57;;
18435;SDS011;9346;52.006;4.720;2023-07-31T10:38:13;2.17;;;1.80;;
18435;SDS011;9346;52.006;4.720;2023-07-31T10:40:41;3.50;;;2.03;;
18435;SDS011;9346;52.006;4.720;2023-07-31T10:43:08;3.73;;;2.47;;
18435;SDS011;9346;52.006;4.720;2023-07-31T10:45:37;4.57;;;2.30;;
18435;SDS011;9346;52.006;4.720;2023-07-31T10:48:07;3.63;;;2.30;;
18435;SDS011;9346;52.006;4.720;2023-07-31T10:50:46;4.00;;;2.67;;
18435;SDS011;9346;52.006;4.720;2023-07-31T10:53:22;5.37;;;2.40;;
18435;SDS011;9346;52.006;4.720;2023-07-31T10:55:49;4.27;;;2.17;;
18435;SDS011;9346;52.006;4.720;2023-07-31T10:58:18;4.77;;;2.90;;
18435;SDS011;9346;52.006;4.720;2023-07-31T11:00:46;2.70;;;1.97;;
18435;SDS011;9346;52.006;4.720;2023-07-31T11:03:15;4.63;;;2.23;;
18435;SDS011;9346;52.006;4.720;2023-07-31T11:05:44;3.97;;;1.90;;
18435;SDS011;9346;52.006;4.720;2023-07-31T11:08:19;4.80;;;2.10;;
18435;SDS011;9346;52.006;4.720;2023-07-31T11:10:47;2.80;;;1.70;;
18435;SDS011;9346;52.006;4.720;2023-07-31T11:13:15;3.33;;;1.97;;
18435;SDS011;9346;52.006;4.720;2023-07-31T11:15:42;3.57;;;2.03;;
18435;SDS011;9346;52.006;4.720;2023-07-31T11:18:09;5.10;;;2.30;;
18435;SDS011;9346;52.006;4.720;2023-07-31T11:20:38;2.33;;;2.13;;
18435;SDS011;9346;52.006;4.720;2023-07-31T11:23:07;4.40;;;3.00;;
18435;SDS011;9346;52.006;4.720;2023-07-31T11:25:35;4.17;;;2.73;;
18435;SDS011;9346;52.006;4.720;2023-07-31T11:28:03;5.47;;;2.90;;
18435;SDS011;9346;52.006;4.720;2023-07-31T11:30:31;5.63;;;3.10;;
18435;SDS011;9346;52.006;4.720;2023-07-31T11:32:59;4.00;;;3.00;;
18435;SDS011;9346;52.006;4.720;2023-07-31T11:35:28;6.20;;;3.47;;
18435;SDS011;9346;52.006;4.720;2023-07-31T11:37:57;5.57;;;3.47;;
18435;SDS011;9346;52.006;4.720;2023-07-31T11:40:23;6.30;;;3.30;;
18435;SDS011;9346;52.006;4.720;2023-07-31T11:42:55;3.83;;;3.20;;
18435;SDS011;9346;52.006;4.720;2023-07-31T11:45:24;4.80;;;3.00;;
18435;SDS011;9346;52.006;4.720;2023-07-31T11:47:53;4.53;;;3.27;;
18435;SDS011;9346;52.006;4.720;2023-07-31T11:50:21;4.63;;;3.73;;
18435;SDS011;9346;52.006;4.720;2023-07-31T11:52:51;8.47;;;4.17;;
18435;SDS011;9346;52.006;4.720;2023-07-31T11:55:23;6.83;;;3.73;;
18435;SDS011;9346;52.006;4.720;2023-07-31T11:57:50;3.90;;;3.50;;
18435;SDS011;9346;52.006;4.720;2023-07-31T12:00:18;6.83;;;3.67;;
18435;SDS011;9346;52.006;4.720;2023-07-31T12:02:45;3.77;;;3.37;;
18435;SDS011;9346;52.006;4.720;2023-07-31T12:05:13;5.57;;;3.63;;
18435;SDS011;9346;52.006;4.720;2023-07-31T12:07:47;7.83;;;3.30;;
18435;SDS011;9346;52.006;4.720;2023-07-31T12:10:28;4.57;;;3.63;;
18435;SDS011;9346;52.006;4.720;2023-07-31T12:13:01;3.90;;;3.13;;
18435;SDS011;9346;52.006;4.720;2023-07-31T12:15:31;5.70;;;3.80;;
18435;SDS011;9346;52.006;4.720;2023-07-31T12:17:59;4.53;;;3.37;;
18435;SDS011;9346;52.006;4.720;2023-07-31T12:20:26;4.13;;;3.20;;
18435;SDS011;9346;52.006;4.720;2023-07-31T12:22:55;3.83;;;3.20;;
18435;SDS011;9346;52.006;4.720;2023-07-31T12:25:29;4.73;;;3.40;;
18435;SDS011;9346;52.006;4.720;2023-07-31T12:27:57;3.63;;;3.27;;
18435;SDS011;9346;52.006;4.720;2023-07-31T12:30:28;4.13;;;3.00;;
18435;SDS011;9346;52.006;4.720;2023-07-31T12:32:55;4.53;;;2.73;;
18435;SDS011;9346;52.006;4.720;2023-07-31T12:35:22;4.00;;;2.70;;
18435;SDS011;9346;52.006;4.720;2023-07-31T12:37:49;3.10;;;2.40;;
18435;SDS011;9346;52.006;4.720;2023-07-31T12:40:16;2.87;;;2.37;;
18435;SDS011;9346;52.006;4.720;2023-07-31T12:42:45;4.53;;;2.70;;
18435;SDS011;9346;52.006;4.720;2023-07-31T12:45:13;4.90;;;2.67;;
18435;SDS011;9346;52.006;4.720;2023-07-31T12:47:40;6.40;;;2.77;;
18435;SDS011;9346;52.006;4.720;2023-07-31T12:50:07;2.83;;;2.60;;
18435;SDS011;9346;52.006;4.720;2023-07-31T12:52:34;6.40;;;2.90;;
18435;SDS011;9346;52.006;4.720;2023-07-31T12:55:01;3.17;;;2.67;;
18435;SDS011;9346;52.006;4.720;2023-07-31T12:57:29;3.53;;;2.70;;
18435;SDS011;9346;52.006;4.720;2023-07-31T12:59:58;3.47;;;2.63;;
18435;SDS011;9346;52.006;4.720;2023-07-31T13:02:24;3.90;;;2.70;;
18435;SDS011;9346;52.006;4.720;2023-07-31T13:04:52;4.07;;;2.97;;
18435;SDS011;9346;52.006;4.720;2023-07-31T13:07:19;4.73;;;2.40;;
18435;SDS011;9346;52.006;4.720;2023-07-31T13:09:46;2.47;;;1.93;;
18435;SDS011;9346;52.006;4.720;2023-07-31T13:12:13;2.07;;;1.37;;
18435;SDS011;9346;52.006;4.720;2023-07-31T13:14:40;1.67;;;1.30;;
18435;SDS011;9346;52.006;4.720;2023-07-31T13:17:08;1.10;;;0.93;;
18435;SDS011;9346;52.006;4.720;2023-07-31T13:19:35;1.60;;;1.30;;
18435;SDS011;9346;52.006;4.720;2023-07-31T13:22:02;1.40;;;1.30;;
18435;SDS011;9346;52.006;4.720;2023-07-31T13:24:29;1.40;;;1.30;;
18435;SDS011;9346;52.006;4.720;2023-07-31T13:26:56;2.03;;;1.50;;
18435;SDS011;9346;52.006;4.720;2023-07-31T13:29:24;1.40;;;1.30;;
18435;SDS011;9346;52.006;4.720;2023-07-31T13:31:51;1.47;;;1.37;;
18435;SDS011;9346;52.006;4.720;2023-07-31T13:34:21;1.40;;;1.30;;
18435;SDS011;9346;52.006;4.720;2023-07-31T13:36:48;1.00;;;0.90;;
18435;SDS011;9346;52.006;4.720;2023-07-31T13:39:14;2.70;;;1.47;;
18435;SDS011;9346;52.006;4.720;2023-07-31T13:41:41;0.97;;;0.90;;
18435;SDS011;9346;52.006;4.720;2023-07-31T13:44:08;1.40;;;1.00;;
18435;SDS011;9346;52.006;4.720;2023-07-31T13:46:35;1.57;;;1.40;;
18435;SDS011;9346;52.006;4.720;2023-07-31T13:49:02;1.10;;;1.00;;
18435;SDS011;9346;52.006;4.720;2023-07-31T13:51:30;1.17;;;1.07;;
18435;SDS011;9346;52.006;4.720;2023-07-31T13:53:57;1.40;;;1.00;;
18435;SDS011;9346;52.006;4.720;2023-07-31T13:56:24;1.77;;;1.00;;
18435;SDS011;9346;52.006;4.720;2023-07-31T13:58:51;3.07;;;1.50;;
18435;SDS011;9346;52.006;4.720;2023-07-31T14:01:18;1.97;;;1.00;;
18435;SDS011;9346;52.006;4.720;2023-07-31T14:03:45;1.30;;;1.20;;
18435;SDS011;9346;52.006;4.720;2023-07-31T14:06:12;1.10;;;1.03;;
18435;SDS011;9346;52.006;4.720;2023-07-31T14:08:40;2.63;;;1.20;;
18435;SDS011;9346;52.006;4.720;2023-07-31T14:11:07;1.27;;;1.17;;
18435;SDS011;9346;52.006;4.720;2023-07-31T14:13:34;1.43;;;1.10;;
18435;SDS011;9346;52.006;4.720;2023-07-31T14:16:01;1.33;;;0.90;;
18435;SDS011;9346;52.006;4.720;2023-07-31T14:18:28;0.80;;;0.80;;
18435;SDS011;9346;52.006;4.720;2023-07-31T14:20:55;0.97;;;0.90;;
18435;SDS011;9346;52.006;4.720;2023-07-31T14:23:22;0.80;;;0.73;;
18435;SDS011;9346;52.006;4.720;2023-07-31T14:25:50;1.70;;;0.90;;
18435;SDS011;9346;52.006;4.720;2023-07-31T14:28:17;0.80;;;0.73;;
18435;SDS011;9346;52.006;4.720;2023-07-31T14:30:44;1.07;;;0.70;;
18435;SDS011;9346;52.006;4.720;2023-07-31T14:33:11;1.20;;;1.00;;
18435;SDS011;9346;52.006;4.720;2023-07-31T14:35:38;1.20;;;1.10;;
18435;SDS011;9346;52.006;4.720;2023-07-31T14:38:04;2.90;;;1.30;;
18435;SDS011;9346;52.006;4.720;2023-07-31T14:40:31;2.60;;;1.40;;
18435;SDS011;9346;52.006;4.720;2023-07-31T14:43:00;2.40;;;1.47;;
18435;SDS011;9346;52.006;4.720;2023-07-31T14:45:27;1.47;;;1.10;;
18435;SDS011;9346;52.006;4.720;2023-07-31T14:47:54;1.70;;;1.40;;
18435;SDS011;9346;52.006;4.720;2023-07-31T14:50:21;2.90;;;1.77;;
18435;SDS011;9346;52.006;4.720;2023-07-31T14:52:48;1.33;;;1.10;;
18435;SDS011;9346;52.006;4.720;2023-07-31T14:55:15;0.70;;;0.70;;
18435;SDS011;9346;52.006;4.720;2023-07-31T14:57:42;1.77;;;1.00;;
18435;SDS011;9346;52.006;4.720;2023-07-31T15:00:11;1.57;;;1.07;;
18435;SDS011;9346;52.006;4.720;2023-07-31T15:02:39;2.70;;;1.47;;
18435;SDS011;9346;52.006;4.720;2023-07-31T15:05:06;1.67;;;1.57;;
18435;SDS011;9346;52.006;4.720;2023-07-31T15:07:34;2.10;;;1.40;;
18435;SDS011;9346;52.006;4.720;2023-07-31T15:10:01;2.20;;;1.83;;